Terminal Aerodrome Forecast
Issued by NWS

Home | Current Version | Previous Version | Text Only | Print | Product List | Glossary On
Versions: 1 2 3 4 5 6 7 8 9 10 11 12 13 14 15 16 17 18 19 20 21 22
148
FTUS46 KSGX 141730
TAFSNA
TAF
KSNA 141730Z 1418/1518 23007KT P6SM SKC
     FM150200 VRB04KT P6SM SKC WS020/04020KT
     FM150700 04008KT P6SM SKC WS015/04030KT
     FM151730 04013G23KT P6SM SKC=

USA.gov is the U.S. government's official web portal to all federal, state and local government web resources and services.